sensor_id;sensor_type;location;lat;lon;timestamp;P1;durP1;ratioP1;P2;durP2;ratioP2
20890;SDS011;10605;52.968;8.844;2023-06-26T00:00:34;13.00;;;10.95;;
20890;SDS011;10605;52.968;8.844;2023-06-26T00:02:59;11.70;;;10.77;;
20890;SDS011;10605;52.968;8.844;2023-06-26T00:05:25;11.48;;;10.43;;
20890;SDS011;10605;52.968;8.844;2023-06-26T00:07:53;11.30;;;10.30;;
20890;SDS011;10605;52.968;8.844;2023-06-26T00:10:18;11.98;;;10.77;;
20890;SDS011;10605;52.968;8.844;2023-06-26T00:12:44;11.35;;;10.55;;
20890;SDS011;10605;52.968;8.844;2023-06-26T00:15:10;11.77;;;10.90;;
20890;SDS011;10605;52.968;8.844;2023-06-26T00:17:37;12.25;;;11.00;;
20890;SDS011;10605;52.968;8.844;2023-06-26T00:20:03;11.73;;;10.77;;
20890;SDS011;10605;52.968;8.844;2023-06-26T00:22:30;11.35;;;10.35;;
20890;SDS011;10605;52.968;8.844;2023-06-26T00:24:56;10.75;;;9.63;;
20890;SDS011;10605;52.968;8.844;2023-06-26T00:27:22;12.57;;;11.07;;
20890;SDS011;10605;52.968;8.844;2023-06-26T00:29:48;11.00;;;9.95;;
20890;SDS011;10605;52.968;8.844;2023-06-26T00:32:13;10.75;;;9.95;;
20890;SDS011;10605;52.968;8.844;2023-06-26T00:34:39;13.50;;;11.27;;
20890;SDS011;10605;52.968;8.844;2023-06-26T00:37:04;12.13;;;10.90;;
20890;SDS011;10605;52.968;8.844;2023-06-26T00:39:30;11.48;;;10.63;;
20890;SDS011;10605;52.968;8.844;2023-06-26T00:41:56;11.77;;;10.82;;
20890;SDS011;10605;52.968;8.844;2023-06-26T00:44:21;11.65;;;10.70;;
20890;SDS011;10605;52.968;8.844;2023-06-26T00:46:47;11.82;;;10.77;;
20890;SDS011;10605;52.968;8.844;2023-06-26T00:49:13;12.25;;;11.25;;
20890;SDS011;10605;52.968;8.844;2023-06-26T00:51:39;12.23;;;10.95;;
20890;SDS011;10605;52.968;8.844;2023-06-26T00:54:05;10.98;;;10.05;;
20890;SDS011;10605;52.968;8.844;2023-06-26T00:56:31;14.38;;;11.75;;
20890;SDS011;10605;52.968;8.844;2023-06-26T00:58:58;17.25;;;11.95;;
20890;SDS011;10605;52.968;8.844;2023-06-26T01:01:24;14.90;;;12.13;;
20890;SDS011;10605;52.968;8.844;2023-06-26T01:03:51;16.17;;;12.68;;
20890;SDS011;10605;52.968;8.844;2023-06-26T01:06:18;13.07;;;11.73;;
20890;SDS011;10605;52.968;8.844;2023-06-26T01:08:47;17.33;;;12.55;;
20890;SDS011;10605;52.968;8.844;2023-06-26T01:11:13;13.13;;;11.95;;
20890;SDS011;10605;52.968;8.844;2023-06-26T01:13:40;15.05;;;13.52;;
20890;SDS011;10605;52.968;8.844;2023-06-26T01:16:07;16.20;;;13.25;;
20890;SDS011;10605;52.968;8.844;2023-06-26T01:18:35;15.82;;;12.85;;
20890;SDS011;10605;52.968;8.844;2023-06-26T01:21:02;14.55;;;13.15;;
20890;SDS011;10605;52.968;8.844;2023-06-26T01:23:30;14.70;;;13.30;;
20890;SDS011;10605;52.968;8.844;2023-06-26T01:26:14;15.30;;;13.98;;
20890;SDS011;10605;52.968;8.844;2023-06-26T01:28:47;15.27;;;13.77;;
20890;SDS011;10605;52.968;8.844;2023-06-26T01:31:15;15.60;;;14.10;;
20890;SDS011;10605;52.968;8.844;2023-06-26T01:33:41;13.85;;;12.85;;
20890;SDS011;10605;52.968;8.844;2023-06-26T01:36:08;14.60;;;13.25;;
20890;SDS011;10605;52.968;8.844;2023-06-26T01:38:36;13.65;;;12.65;;
20890;SDS011;10605;52.968;8.844;2023-06-26T01:41:02;15.15;;;13.65;;
20890;SDS011;10605;52.968;8.844;2023-06-26T01:46:27;15.20;;;13.65;;
20890;SDS011;10605;52.968;8.844;2023-06-26T01:49:18;15.23;;;13.40;;
20890;SDS011;10605;52.968;8.844;2023-06-26T01:52:00;15.70;;;14.20;;
20890;SDS011;10605;52.968;8.844;2023-06-26T01:57:42;15.10;;;13.70;;
20890;SDS011;10605;52.968;8.844;2023-06-26T02:00:09;16.23;;;14.63;;
20890;SDS011;10605;52.968;8.844;2023-06-26T02:02:36;16.80;;;13.65;;
20890;SDS011;10605;52.968;8.844;2023-06-26T02:05:02;14.85;;;13.55;;
20890;SDS011;10605;52.968;8.844;2023-06-26T02:07:27;15.23;;;13.98;;
20890;SDS011;10605;52.968;8.844;2023-06-26T02:09:53;15.95;;;14.48;;
20890;SDS011;10605;52.968;8.844;2023-06-26T02:12:20;15.38;;;13.98;;
20890;SDS011;10605;52.968;8.844;2023-06-26T02:14:45;15.52;;;14.20;;
20890;SDS011;10605;52.968;8.844;2023-06-26T02:17:11;15.65;;;14.15;;
20890;SDS011;10605;52.968;8.844;2023-06-26T02:19:37;15.05;;;13.75;;
20890;SDS011;10605;52.968;8.844;2023-06-26T02:22:12;15.82;;;14.52;;
20890;SDS011;10605;52.968;8.844;2023-06-26T02:24:39;21.38;;;14.63;;
20890;SDS011;10605;52.968;8.844;2023-06-26T02:27:04;15.95;;;14.15;;
20890;SDS011;10605;52.968;8.844;2023-06-26T02:29:33;15.40;;;14.20;;
20890;SDS011;10605;52.968;8.844;2023-06-26T02:31:58;15.73;;;14.27;;
20890;SDS011;10605;52.968;8.844;2023-06-26T02:34:24;15.52;;;14.13;;
20890;SDS011;10605;52.968;8.844;2023-06-26T02:36:49;15.70;;;14.23;;
20890;SDS011;10605;52.968;8.844;2023-06-26T02:39:15;15.00;;;13.80;;
20890;SDS011;10605;52.968;8.844;2023-06-26T02:41:41;19.08;;;14.73;;
20890;SDS011;10605;52.968;8.844;2023-06-26T02:44:08;15.82;;;14.50;;
20890;SDS011;10605;52.968;8.844;2023-06-26T02:46:35;17.13;;;13.75;;
20890;SDS011;10605;52.968;8.844;2023-06-26T02:49:01;20.38;;;14.88;;
20890;SDS011;10605;52.968;8.844;2023-06-26T02:51:26;15.27;;;13.77;;
20890;SDS011;10605;52.968;8.844;2023-06-26T02:53:52;15.52;;;14.07;;
20890;SDS011;10605;52.968;8.844;2023-06-26T02:56:18;16.13;;;14.73;;
20890;SDS011;10605;52.968;8.844;2023-06-26T02:58:43;15.93;;;14.73;;
20890;SDS011;10605;52.968;8.844;2023-06-26T03:01:09;17.05;;;14.90;;
20890;SDS011;10605;52.968;8.844;2023-06-26T03:03:35;16.15;;;14.35;;
20890;SDS011;10605;52.968;8.844;2023-06-26T03:06:05;15.77;;;14.50;;
20890;SDS011;10605;52.968;8.844;2023-06-26T03:08:32;15.32;;;13.90;;
20890;SDS011;10605;52.968;8.844;2023-06-26T03:10:58;20.08;;;15.30;;
20890;SDS011;10605;52.968;8.844;2023-06-26T03:13:24;17.52;;;14.38;;
20890;SDS011;10605;52.968;8.844;2023-06-26T03:15:50;15.65;;;13.60;;
20890;SDS011;10605;52.968;8.844;2023-06-26T03:18:15;17.35;;;14.30;;
20890;SDS011;10605;52.968;8.844;2023-06-26T03:20:41;15.68;;;14.23;;
20890;SDS011;10605;52.968;8.844;2023-06-26T03:23:07;16.40;;;14.88;;
20890;SDS011;10605;52.968;8.844;2023-06-26T03:25:32;16.73;;;14.25;;
20890;SDS011;10605;52.968;8.844;2023-06-26T03:27:58;17.23;;;14.95;;
20890;SDS011;10605;52.968;8.844;2023-06-26T03:30:24;16.15;;;13.88;;
20890;SDS011;10605;52.968;8.844;2023-06-26T03:32:49;16.13;;;14.68;;
20890;SDS011;10605;52.968;8.844;2023-06-26T03:35:15;15.18;;;13.77;;
20890;SDS011;10605;52.968;8.844;2023-06-26T03:37:40;18.95;;;14.45;;
20890;SDS011;10605;52.968;8.844;2023-06-26T03:40:06;14.50;;;13.27;;
20890;SDS011;10605;52.968;8.844;2023-06-26T03:42:32;15.55;;;13.05;;
20890;SDS011;10605;52.968;8.844;2023-06-26T03:44:58;15.60;;;13.98;;
20890;SDS011;10605;52.968;8.844;2023-06-26T03:47:24;15.32;;;13.80;;
20890;SDS011;10605;52.968;8.844;2023-06-26T03:49:49;14.82;;;13.35;;
20890;SDS011;10605;52.968;8.844;2023-06-26T03:52:15;14.50;;;13.18;;
20890;SDS011;10605;52.968;8.844;2023-06-26T03:54:40;14.75;;;12.38;;
20890;SDS011;10605;52.968;8.844;2023-06-26T03:57:06;19.33;;;11.88;;
20890;SDS011;10605;52.968;8.844;2023-06-26T03:59:32;14.30;;;12.18;;
20890;SDS011;10605;52.968;8.844;2023-06-26T04:01:58;12.65;;;11.50;;
20890;SDS011;10605;52.968;8.844;2023-06-26T04:04:23;12.52;;;11.27;;
20890;SDS011;10605;52.968;8.844;2023-06-26T04:06:49;12.82;;;11.60;;
20890;SDS011;10605;52.968;8.844;2023-06-26T04:09:15;11.80;;;10.70;;
20890;SDS011;10605;52.968;8.844;2023-06-26T04:11:42;10.57;;;9.68;;
20890;SDS011;10605;52.968;8.844;2023-06-26T04:14:07;10.90;;;9.90;;
20890;SDS011;10605;52.968;8.844;2023-06-26T04:16:33;11.18;;;10.20;;
20890;SDS011;10605;52.968;8.844;2023-06-26T04:18:58;11.20;;;10.07;;
20890;SDS011;10605;52.968;8.844;2023-06-26T04:21:24;10.43;;;9.45;;
20890;SDS011;10605;52.968;8.844;2023-06-26T04:23:50;10.48;;;9.52;;
20890;SDS011;10605;52.968;8.844;2023-06-26T04:26:16;10.75;;;9.68;;
20890;SDS011;10605;52.968;8.844;2023-06-26T04:28:41;9.50;;;8.55;;
20890;SDS011;10605;52.968;8.844;2023-06-26T04:31:08;12.23;;;8.68;;
20890;SDS011;10605;52.968;8.844;2023-06-26T04:33:34;9.40;;;8.48;;
20890;SDS011;10605;52.968;8.844;2023-06-26T04:36:04;13.85;;;8.15;;
20890;SDS011;10605;52.968;8.844;2023-06-26T04:38:30;9.10;;;7.93;;
20890;SDS011;10605;52.968;8.844;2023-06-26T04:41:00;8.57;;;7.82;;
20890;SDS011;10605;52.968;8.844;2023-06-26T04:43:26;8.73;;;7.78;;
20890;SDS011;10605;52.968;8.844;2023-06-26T04:45:52;9.63;;;7.47;;
20890;SDS011;10605;52.968;8.844;2023-06-26T04:48:17;9.38;;;8.07;;
20890;SDS011;10605;52.968;8.844;2023-06-26T04:50:43;8.25;;;7.55;;
20890;SDS011;10605;52.968;8.844;2023-06-26T04:53:18;7.82;;;7.22;;
20890;SDS011;10605;52.968;8.844;2023-06-26T04:55:45;7.50;;;6.70;;
20890;SDS011;10605;52.968;8.844;2023-06-26T04:58:10;7.75;;;7.15;;
20890;SDS011;10605;52.968;8.844;2023-06-26T05:00:36;8.43;;;7.55;;
20890;SDS011;10605;52.968;8.844;2023-06-26T05:03:02;8.48;;;7.18;;
20890;SDS011;10605;52.968;8.844;2023-06-26T05:05:28;13.18;;;7.88;;
20890;SDS011;10605;52.968;8.844;2023-06-26T05:07:54;6.65;;;6.13;;
20890;SDS011;10605;52.968;8.844;2023-06-26T05:10:21;7.25;;;6.55;;
20890;SDS011;10605;52.968;8.844;2023-06-26T05:12:47;9.15;;;6.18;;
20890;SDS011;10605;52.968;8.844;2023-06-26T05:15:12;6.68;;;6.07;;
20890;SDS011;10605;52.968;8.844;2023-06-26T05:17:38;7.85;;;6.20;;
20890;SDS011;10605;52.968;8.844;2023-06-26T05:20:04;10.20;;;6.25;;
20890;SDS011;10605;52.968;8.844;2023-06-26T05:22:30;6.35;;;5.78;;
20890;SDS011;10605;52.968;8.844;2023-06-26T05:24:57;6.78;;;6.03;;
20890;SDS011;10605;52.968;8.844;2023-06-26T05:27:25;6.97;;;6.47;;
20890;SDS011;10605;52.968;8.844;2023-06-26T05:29:51;11.90;;;6.88;;
20890;SDS011;10605;52.968;8.844;2023-06-26T05:32:17;6.70;;;6.13;;
20890;SDS011;10605;52.968;8.844;2023-06-26T05:34:49;6.90;;;6.28;;
20890;SDS011;10605;52.968;8.844;2023-06-26T05:37:19;7.70;;;6.35;;
20890;SDS011;10605;52.968;8.844;2023-06-26T05:39:46;6.65;;;6.05;;
20890;SDS011;10605;52.968;8.844;2023-06-26T05:42:12;6.30;;;5.70;;
20890;SDS011;10605;52.968;8.844;2023-06-26T05:44:39;5.85;;;5.35;;
20890;SDS011;10605;52.968;8.844;2023-06-26T05:47:04;6.30;;;5.72;;
20890;SDS011;10605;52.968;8.844;2023-06-26T05:49:30;6.43;;;5.90;;
20890;SDS011;10605;52.968;8.844;2023-06-26T05:51:56;5.85;;;5.30;;
20890;SDS011;10605;52.968;8.844;2023-06-26T05:54:23;5.43;;;5.03;;
20890;SDS011;10605;52.968;8.844;2023-06-26T05:56:49;5.45;;;5.15;;
20890;SDS011;10605;52.968;8.844;2023-06-26T05:59:21;6.00;;;5.40;;
20890;SDS011;10605;52.968;8.844;2023-06-26T06:01:48;6.38;;;5.53;;
20890;SDS011;10605;52.968;8.844;2023-06-26T06:04:13;5.68;;;5.20;;
20890;SDS011;10605;52.968;8.844;2023-06-26T06:06:39;5.82;;;5.30;;
20890;SDS011;10605;52.968;8.844;2023-06-26T06:09:05;8.20;;;5.40;;
20890;SDS011;10605;52.968;8.844;2023-06-26T06:11:30;5.45;;;5.05;;
20890;SDS011;10605;52.968;8.844;2023-06-26T06:13:56;5.68;;;5.15;;
20890;SDS011;10605;52.968;8.844;2023-06-26T06:16:23;9.60;;;5.43;;
20890;SDS011;10605;52.968;8.844;2023-06-26T06:18:49;8.95;;;5.00;;
20890;SDS011;10605;52.968;8.844;2023-06-26T06:21:15;9.85;;;5.70;;
20890;SDS011;10605;52.968;8.844;2023-06-26T06:23:41;5.47;;;5.07;;
20890;SDS011;10605;52.968;8.844;2023-06-26T06:26:06;5.53;;;5.07;;
20890;SDS011;10605;52.968;8.844;2023-06-26T06:28:32;8.35;;;5.50;;
20890;SDS011;10605;52.968;8.844;2023-06-26T06:30:57;8.40;;;5.03;;
20890;SDS011;10605;52.968;8.844;2023-06-26T06:33:23;9.82;;;5.13;;
20890;SDS011;10605;52.968;8.844;2023-06-26T06:35:49;6.07;;;5.57;;
20890;SDS011;10605;52.968;8.844;2023-06-26T06:38:14;6.25;;;5.63;;
20890;SDS011;10605;52.968;8.844;2023-06-26T06:40:40;5.63;;;5.28;;
20890;SDS011;10605;52.968;8.844;2023-06-26T06:43:05;8.23;;;5.85;;
20890;SDS011;10605;52.968;8.844;2023-06-26T06:45:31;6.35;;;5.75;;
20890;SDS011;10605;52.968;8.844;2023-06-26T06:47:57;5.93;;;5.53;;
20890;SDS011;10605;52.968;8.844;2023-06-26T06:50:23;9.55;;;6.07;;
20890;SDS011;10605;52.968;8.844;2023-06-26T06:52:48;16.40;;;6.00;;
20890;SDS011;10605;52.968;8.844;2023-06-26T06:55:14;5.80;;;5.30;;
20890;SDS011;10605;52.968;8.844;2023-06-26T06:57:39;6.22;;;5.72;;
20890;SDS011;10605;52.968;8.844;2023-06-26T07:00:09;7.70;;;5.38;;
20890;SDS011;10605;52.968;8.844;2023-06-26T07:02:36;6.30;;;5.70;;
20890;SDS011;10605;52.968;8.844;2023-06-26T07:05:03;8.52;;;6.20;;
20890;SDS011;10605;52.968;8.844;2023-06-26T07:07:29;6.32;;;5.80;;
20890;SDS011;10605;52.968;8.844;2023-06-26T07:09:59;6.57;;;6.07;;
20890;SDS011;10605;52.968;8.844;2023-06-26T07:12:26;7.78;;;6.35;;
20890;SDS011;10605;52.968;8.844;2023-06-26T07:14:52;6.90;;;6.25;;
20890;SDS011;10605;52.968;8.844;2023-06-26T07:17:19;6.25;;;5.72;;
20890;SDS011;10605;52.968;8.844;2023-06-26T07:19:45;7.65;;;6.60;;
20890;SDS011;10605;52.968;8.844;2023-06-26T07:22:11;6.85;;;6.13;;
20890;SDS011;10605;52.968;8.844;2023-06-26T07:24:37;8.70;;;7.72;;
20890;SDS011;10605;52.968;8.844;2023-06-26T07:27:02;7.80;;;6.53;;
20890;SDS011;10605;52.968;8.844;2023-06-26T07:29:28;9.20;;;7.97;;
20890;SDS011;10605;52.968;8.844;2023-06-26T07:31:54;12.60;;;6.90;;
20890;SDS011;10605;52.968;8.844;2023-06-26T07:34:20;9.73;;;7.63;;
20890;SDS011;10605;52.968;8.844;2023-06-26T07:36:45;15.23;;;7.30;;
20890;SDS011;10605;52.968;8.844;2023-06-26T07:39:11;7.75;;;6.72;;
20890;SDS011;10605;52.968;8.844;2023-06-26T07:41:37;6.55;;;6.07;;
20890;SDS011;10605;52.968;8.844;2023-06-26T07:44:02;8.35;;;6.28;;
20890;SDS011;10605;52.968;8.844;2023-06-26T07:46:28;7.47;;;6.60;;
20890;SDS011;10605;52.968;8.844;2023-06-26T07:48:54;10.90;;;5.47;;
20890;SDS011;10605;52.968;8.844;2023-06-26T07:51:20;6.00;;;5.63;;
20890;SDS011;10605;52.968;8.844;2023-06-26T07:53:46;6.05;;;5.47;;
20890;SDS011;10605;52.968;8.844;2023-06-26T07:56:12;8.52;;;6.05;;
20890;SDS011;10605;52.968;8.844;2023-06-26T07:58:37;7.35;;;5.60;;
20890;SDS011;10605;52.968;8.844;2023-06-26T08:01:03;5.63;;;5.13;;
20890;SDS011;10605;52.968;8.844;2023-06-26T08:03:29;7.78;;;5.78;;
20890;SDS011;10605;52.968;8.844;2023-06-26T08:05:54;13.18;;;6.10;;
20890;SDS011;10605;52.968;8.844;2023-06-26T08:08:20;6.38;;;5.80;;
20890;SDS011;10605;52.968;8.844;2023-06-26T08:10:46;9.07;;;6.82;;
20890;SDS011;10605;52.968;8.844;2023-06-26T08:13:11;11.60;;;7.22;;
20890;SDS011;10605;52.968;8.844;2023-06-26T08:15:37;8.98;;;6.47;;
20890;SDS011;10605;52.968;8.844;2023-06-26T08:18:04;8.07;;;7.45;;
20890;SDS011;10605;52.968;8.844;2023-06-26T08:20:30;12.50;;;8.05;;
20890;SDS011;10605;52.968;8.844;2023-06-26T08:22:55;11.52;;;7.60;;
20890;SDS011;10605;52.968;8.844;2023-06-26T08:25:21;11.60;;;8.52;;
20890;SDS011;10605;52.968;8.844;2023-06-26T08:27:46;8.70;;;7.80;;
20890;SDS011;10605;52.968;8.844;2023-06-26T08:30:13;12.45;;;8.70;;
20890;SDS011;10605;52.968;8.844;2023-06-26T08:32:39;8.90;;;8.20;;
20890;SDS011;10605;52.968;8.844;2023-06-26T08:35:05;9.65;;;8.85;;
20890;SDS011;10605;52.968;8.844;2023-06-26T08:37:31;11.80;;;8.05;;
20890;SDS011;10605;52.968;8.844;2023-06-26T08:39:58;7.10;;;6.47;;
20890;SDS011;10605;52.968;8.844;2023-06-26T08:42:24;7.93;;;6.07;;
20890;SDS011;10605;52.968;8.844;2023-06-26T08:44:50;8.57;;;7.05;;
20890;SDS011;10605;52.968;8.844;2023-06-26T08:47:17;14.02;;;6.63;;
20890;SDS011;10605;52.968;8.844;2023-06-26T08:50:00;23.73;;;7.40;;
20890;SDS011;10605;52.968;8.844;2023-06-26T08:55:35;11.90;;;6.88;;
20890;SDS011;10605;52.968;8.844;2023-06-26T08:58:03;10.52;;;6.95;;
20890;SDS011;10605;52.968;8.844;2023-06-26T09:00:29;8.32;;;7.53;;
20890;SDS011;10605;52.968;8.844;2023-06-26T09:02:56;12.85;;;8.13;;
20890;SDS011;10605;52.968;8.844;2023-06-26T09:05:21;12.93;;;8.13;;
20890;SDS011;10605;52.968;8.844;2023-06-26T09:07:47;11.32;;;8.82;;
20890;SDS011;10605;52.968;8.844;2023-06-26T09:10:13;9.30;;;8.50;;
20890;SDS011;10605;52.968;8.844;2023-06-26T09:12:39;13.98;;;8.18;;
20890;SDS011;10605;52.968;8.844;2023-06-26T09:15:08;14.77;;;9.55;;
20890;SDS011;10605;52.968;8.844;2023-06-26T09:17:37;15.27;;;9.68;;
20890;SDS011;10605;52.968;8.844;2023-06-26T09:20:05;9.95;;;8.95;;
20890;SDS011;10605;52.968;8.844;2023-06-26T09:22:33;11.38;;;9.10;;
20890;SDS011;10605;52.968;8.844;2023-06-26T09:25:02;12.30;;;9.25;;
20890;SDS011;10605;52.968;8.844;2023-06-26T09:27:28;13.88;;;10.38;;
20890;SDS011;10605;52.968;8.844;2023-06-26T09:29:55;10.98;;;9.75;;
20890;SDS011;10605;52.968;8.844;2023-06-26T09:32:26;12.82;;;10.25;;
20890;SDS011;10605;52.968;8.844;2023-06-26T09:34:55;8.32;;;7.35;;
20890;SDS011;10605;52.968;8.844;2023-06-26T09:37:21;11.35;;;8.38;;
20890;SDS011;10605;52.968;8.844;2023-06-26T09:39:47;10.82;;;6.80;;
20890;SDS011;10605;52.968;8.844;2023-06-26T09:42:14;9.43;;;6.40;;
20890;SDS011;10605;52.968;8.844;2023-06-26T09:44:43;7.15;;;5.05;;
20890;SDS011;10605;52.968;8.844;2023-06-26T09:47:10;6.68;;;3.63;;
20890;SDS011;10605;52.968;8.844;2023-06-26T09:49:36;3.88;;;2.72;;
20890;SDS011;10605;52.968;8.844;2023-06-26T09:52:01;2.40;;;2.20;;
20890;SDS011;10605;52.968;8.844;2023-06-26T09:54:28;5.80;;;2.80;;
20890;SDS011;10605;52.968;8.844;2023-06-26T09:56:55;5.68;;;2.42;;
20890;SDS011;10605;52.968;8.844;2023-06-26T09:59:32;6.00;;;2.78;;
20890;SDS011;10605;52.968;8.844;2023-06-26T10:01:58;7.40;;;2.63;;
20890;SDS011;10605;52.968;8.844;2023-06-26T10:04:26;5.15;;;3.00;;
20890;SDS011;10605;52.968;8.844;2023-06-26T10:06:51;3.17;;;2.47;;
20890;SDS011;10605;52.968;8.844;2023-06-26T10:09:21;4.35;;;2.20;;
20890;SDS011;10605;52.968;8.844;2023-06-26T10:12:07;4.53;;;2.42;;
20890;SDS011;10605;52.968;8.844;2023-06-26T10:14:53;4.93;;;2.22;;
20890;SDS011;10605;52.968;8.844;2023-06-26T10:17:20;4.80;;;2.45;;
20890;SDS011;10605;52.968;8.844;2023-06-26T10:19:46;8.38;;;2.22;;
20890;SDS011;10605;52.968;8.844;2023-06-26T10:22:17;4.25;;;2.05;;
20890;SDS011;10605;52.968;8.844;2023-06-26T10:24:45;5.35;;;2.05;;
20890;SDS011;10605;52.968;8.844;2023-06-26T10:27:17;3.20;;;1.85;;
20890;SDS011;10605;52.968;8.844;2023-06-26T10:29:54;2.63;;;1.63;;
20890;SDS011;10605;52.968;8.844;2023-06-26T10:32:22;5.13;;;1.77;;
20890;SDS011;10605;52.968;8.844;2023-06-26T10:34:50;7.82;;;2.00;;
20890;SDS011;10605;52.968;8.844;2023-06-26T10:37:17;4.97;;;2.30;;
20890;SDS011;10605;52.968;8.844;2023-06-26T10:39:46;3.38;;;2.22;;
20890;SDS011;10605;52.968;8.844;2023-06-26T10:42:14;2.72;;;1.70;;
20890;SDS011;10605;52.968;8.844;2023-06-26T10:44:44;4.47;;;1.67;;
20890;SDS011;10605;52.968;8.844;2023-06-26T10:47:11;7.13;;;2.10;;
20890;SDS011;10605;52.968;8.844;2023-06-26T10:49:54;4.50;;;1.70;;
20890;SDS011;10605;52.968;8.844;2023-06-26T10:52:20;2.53;;;1.40;;
20890;SDS011;10605;52.968;8.844;2023-06-26T10:54:45;4.55;;;1.33;;
20890;SDS011;10605;52.968;8.844;2023-06-26T10:57:11;2.75;;;1.35;;
20890;SDS011;10605;52.968;8.844;2023-06-26T10:59:49;2.50;;;1.50;;
20890;SDS011;10605;52.968;8.844;2023-06-26T11:02:46;3.40;;;1.30;;
20890;SDS011;10605;52.968;8.844;2023-06-26T11:05:13;4.07;;;2.00;;
20890;SDS011;10605;52.968;8.844;2023-06-26T11:08:02;4.88;;;2.00;;
20890;SDS011;10605;52.968;8.844;2023-06-26T11:10:29;7.43;;;1.73;;
20890;SDS011;10605;52.968;8.844;2023-06-26T11:12:54;10.63;;;2.33;;
20890;SDS011;10605;52.968;8.844;2023-06-26T11:15:24;3.97;;;1.92;;
20890;SDS011;10605;52.968;8.844;2023-06-26T11:17:51;5.50;;;1.63;;
20890;SDS011;10605;52.968;8.844;2023-06-26T11:20:18;4.75;;;1.40;;
20890;SDS011;10605;52.968;8.844;2023-06-26T11:22:44;5.72;;;1.55;;
20890;SDS011;10605;52.968;8.844;2023-06-26T11:25:10;3.17;;;1.65;;
20890;SDS011;10605;52.968;8.844;2023-06-26T11:27:39;5.22;;;1.42;;
20890;SDS011;10605;52.968;8.844;2023-06-26T11:30:06;9.02;;;1.52;;
20890;SDS011;10605;52.968;8.844;2023-06-26T11:32:33;1.60;;;1.13;;
20890;SDS011;10605;52.968;8.844;2023-06-26T11:34:59;4.53;;;1.58;;
20890;SDS011;10605;52.968;8.844;2023-06-26T11:37:25;2.47;;;1.27;;
20890;SDS011;10605;52.968;8.844;2023-06-26T11:39:51;3.25;;;1.70;;
20890;SDS011;10605;52.968;8.844;2023-06-26T11:42:18;3.92;;;1.20;;
20890;SDS011;10605;52.968;8.844;2023-06-26T11:44:45;2.72;;;1.42;;
20890;SDS011;10605;52.968;8.844;2023-06-26T11:47:15;1.65;;;1.48;;
20890;SDS011;10605;52.968;8.844;2023-06-26T11:49:42;5.25;;;1.52;;
20890;SDS011;10605;52.968;8.844;2023-06-26T11:52:08;3.00;;;1.20;;
20890;SDS011;10605;52.968;8.844;2023-06-26T11:54:34;3.88;;;1.30;;
20890;SDS011;10605;52.968;8.844;2023-06-26T11:57:00;4.05;;;1.50;;
20890;SDS011;10605;52.968;8.844;2023-06-26T11:59:39;4.57;;;1.23;;
20890;SDS011;10605;52.968;8.844;2023-06-26T12:02:09;4.22;;;1.27;;
20890;SDS011;10605;52.968;8.844;2023-06-26T12:04:40;7.68;;;1.55;;
20890;SDS011;10605;52.968;8.844;2023-06-26T12:07:07;4.32;;;1.50;;
20890;SDS011;10605;52.968;8.844;2023-06-26T12:09:41;2.55;;;1.58;;
20890;SDS011;10605;52.968;8.844;2023-06-26T12:12:11;2.38;;;1.75;;
20890;SDS011;10605;52.968;8.844;2023-06-26T12:14:41;2.72;;;1.38;;
20890;SDS011;10605;52.968;8.844;2023-06-26T12:17:11;1.88;;;1.08;;
20890;SDS011;10605;52.968;8.844;2023-06-26T12:19:38;3.28;;;1.15;;
20890;SDS011;10605;52.968;8.844;2023-06-26T12:22:09;3.70;;;1.40;;
20890;SDS011;10605;52.968;8.844;2023-06-26T12:24:36;5.65;;;1.50;;
20890;SDS011;10605;52.968;8.844;2023-06-26T12:27:06;5.75;;;1.30;;
20890;SDS011;10605;52.968;8.844;2023-06-26T12:29:37;2.08;;;1.40;;
20890;SDS011;10605;52.968;8.844;2023-06-26T12:32:07;10.45;;;1.27;;
20890;SDS011;10605;52.968;8.844;2023-06-26T12:34:35;7.45;;;1.58;;
20890;SDS011;10605;52.968;8.844;2023-06-26T12:37:10;3.17;;;1.40;;
20890;SDS011;10605;52.968;8.844;2023-06-26T12:42:22;3.63;;;1.15;;
20890;SDS011;10605;52.968;8.844;2023-06-26T12:44:52;2.05;;;1.23;;
20890;SDS011;10605;52.968;8.844;2023-06-26T12:47:23;4.28;;;1.70;;
20890;SDS011;10605;52.968;8.844;2023-06-26T12:49:50;2.17;;;1.35;;
20890;SDS011;10605;52.968;8.844;2023-06-26T12:52:17;5.03;;;1.55;;
20890;SDS011;10605;52.968;8.844;2023-06-26T12:54:46;3.42;;;1.35;;
20890;SDS011;10605;52.968;8.844;2023-06-26T12:57:16;2.22;;;1.50;;
20890;SDS011;10605;52.968;8.844;2023-06-26T12:59:41;5.75;;;1.40;;
20890;SDS011;10605;52.968;8.844;2023-06-26T13:02:08;2.63;;;1.40;;
20890;SDS011;10605;52.968;8.844;2023-06-26T13:04:36;2.75;;;1.42;;
20890;SDS011;10605;52.968;8.844;2023-06-26T13:07:04;2.05;;;1.30;;
20890;SDS011;10605;52.968;8.844;2023-06-26T13:09:32;3.05;;;1.40;;
20890;SDS011;10605;52.968;8.844;2023-06-26T13:11:59;13.35;;;2.60;;
20890;SDS011;10605;52.968;8.844;2023-06-26T13:14:25;4.20;;;1.65;;
20890;SDS011;10605;52.968;8.844;2023-06-26T13:16:51;1.63;;;1.30;;
20890;SDS011;10605;52.968;8.844;2023-06-26T13:19:16;3.58;;;1.77;;
20890;SDS011;10605;52.968;8.844;2023-06-26T13:21:42;1.25;;;1.15;;
20890;SDS011;10605;52.968;8.844;2023-06-26T13:24:08;2.97;;;1.40;;
20890;SDS011;10605;52.968;8.844;2023-06-26T13:26:34;10.95;;;1.15;;
20890;SDS011;10605;52.968;8.844;2023-06-26T13:29:00;5.63;;;1.40;;
20890;SDS011;10605;52.968;8.844;2023-06-26T13:31:26;3.63;;;1.27;;
20890;SDS011;10605;52.968;8.844;2023-06-26T13:33:52;4.28;;;1.23;;
20890;SDS011;10605;52.968;8.844;2023-06-26T13:36:17;4.57;;;1.67;;
20890;SDS011;10605;52.968;8.844;2023-06-26T13:38:44;2.67;;;1.67;;
20890;SDS011;10605;52.968;8.844;2023-06-26T13:41:10;1.73;;;1.10;;
20890;SDS011;10605;52.968;8.844;2023-06-26T13:43:36;4.07;;;1.40;;
20890;SDS011;10605;52.968;8.844;2023-06-26T13:46:02;2.35;;;1.55;;
20890;SDS011;10605;52.968;8.844;2023-06-26T13:48:28;5.15;;;1.70;;
20890;SDS011;10605;52.968;8.844;2023-06-26T13:50:54;6.85;;;1.50;;
20890;SDS011;10605;52.968;8.844;2023-06-26T13:53:20;5.13;;;1.67;;
20890;SDS011;10605;52.968;8.844;2023-06-26T13:55:45;5.53;;;1.23;;
20890;SDS011;10605;52.968;8.844;2023-06-26T13:58:11;4.30;;;1.85;;
20890;SDS011;10605;52.968;8.844;2023-06-26T14:00:38;3.47;;;1.55;;
20890;SDS011;10605;52.968;8.844;2023-06-26T14:03:04;2.08;;;1.58;;
20890;SDS011;10605;52.968;8.844;2023-06-26T14:05:35;3.15;;;1.27;;
20890;SDS011;10605;52.968;8.844;2023-06-26T14:08:04;2.70;;;1.30;;
20890;SDS011;10605;52.968;8.844;2023-06-26T14:10:30;3.80;;;1.77;;
20890;SDS011;10605;52.968;8.844;2023-06-26T14:12:58;3.58;;;1.73;;
20890;SDS011;10605;52.968;8.844;2023-06-26T14:15:24;3.58;;;1.50;;
20890;SDS011;10605;52.968;8.844;2023-06-26T14:17:50;3.55;;;1.67;;
20890;SDS011;10605;52.968;8.844;2023-06-26T14:20:16;3.60;;;1.60;;
20890;SDS011;10605;52.968;8.844;2023-06-26T14:22:42;3.92;;;1.55;;
20890;SDS011;10605;52.968;8.844;2023-06-26T14:25:11;3.15;;;1.80;;
20890;SDS011;10605;52.968;8.844;2023-06-26T14:27:38;7.97;;;2.03;;
20890;SDS011;10605;52.968;8.844;2023-06-26T14:30:04;4.35;;;1.45;;
20890;SDS011;10605;52.968;8.844;2023-06-26T14:32:30;6.93;;;1.73;;
20890;SDS011;10605;52.968;8.844;2023-06-26T14:34:56;2.25;;;1.58;;
20890;SDS011;10605;52.968;8.844;2023-06-26T14:37:23;3.42;;;2.55;;
20890;SDS011;10605;52.968;8.844;2023-06-26T14:39:49;5.50;;;1.80;;
20890;SDS011;10605;52.968;8.844;2023-06-26T14:42:15;3.50;;;1.80;;
20890;SDS011;10605;52.968;8.844;2023-06-26T14:44:40;4.72;;;1.45;;
20890;SDS011;10605;52.968;8.844;2023-06-26T14:47:06;5.40;;;1.70;;
20890;SDS011;10605;52.968;8.844;2023-06-26T14:49:32;3.80;;;1.90;;